Time;durP1;ratioP1;P1;durP2;ratioP2;P2;SDS_P1;SDS_P2;PMS_P1;PMS_P2;Temp;Humidity;BMP_temperature;BMP_pressure;BME280_temperature;BME280_humidity;BME280_pressure;Samples;Min_cycle;Max_cycle;Signal;HPM_P1;HPM_P2
2023/04/14 00:00:35;;;;;;;4.70;3.72;;;;;;;13.46;55.60;64371.03;5070952;28;20732;-58
2023/04/14 00:03:01;;;;;;;6.43;4.00;;;;;;;13.25;55.21;64344.91;5071018;28;20201;-57
2023/04/14 00:05:28;;;;;;;7.57;3.90;;;;;;;13.16;56.36;64338.09;5053083;28;20544;-58
2023/04/14 00:07:54;;;;;;;5.50;3.60;;;;;;;13.22;55.53;64342.16;5052712;28;20271;-58
2023/04/14 00:10:19;;;;;;;6.25;3.85;;;;;;;13.25;56.86;64347.97;5071003;28;20685;-57
2023/04/14 00:12:45;;;;;;;7.15;3.70;;;;;;;13.14;57.74;64332.81;5070799;28;20189;-57
2023/04/14 00:15:10;;;;;;;7.30;4.28;;;;;;;13.07;57.16;64325.69;5070925;28;20599;-58
2023/04/14 00:17:36;;;;;;;8.57;4.03;;;;;;;12.96;58.21;64316.13;5070728;28;20181;-58
2023/04/14 00:20:02;;;;;;;7.50;4.10;;;;;;;12.63;59.57;64280.47;5052814;28;20195;-56
2023/04/14 00:22:28;;;;;;;7.80;3.93;;;;;;;12.88;59.47;64304.28;5070251;28;20193;-57
2023/04/14 00:24:54;;;;;;;6.35;3.78;;;;;;;13.01;58.63;64321.06;5070712;28;20219;-60
2023/04/14 00:27:19;;;;;;;5.63;4.30;;;;;;;12.92;58.91;64311.75;5070701;28;20209;-62
2023/04/14 00:29:45;;;;;;;6.27;4.07;;;;;;;12.91;59.35;64307.56;5069555;28;20216;-63
2023/04/14 00:32:10;;;;;;;8.43;4.07;;;;;;;12.86;57.89;64304.59;5070034;28;20185;-62
2023/04/14 00:34:36;;;;;;;8.05;4.20;;;;;;;12.58;59.00;64274.97;5070052;28;20209;-61
2023/04/14 00:37:02;;;;;;;5.82;3.78;;;;;;;12.49;59.22;64262.03;5070542;28;20192;-61
2023/04/14 00:39:27;;;;;;;8.73;4.38;;;;;;;12.60;58.94;64274.13;5070180;28;20274;-61
2023/04/14 00:41:53;;;;;;;7.60;4.53;;;;;;;12.57;59.11;64271.38;5069925;28;20189;-61
2023/04/14 00:44:18;;;;;;;5.53;3.60;;;;;;;12.77;59.79;64290.22;5069980;28;20561;-60
2023/04/14 00:46:44;;;;;;;6.47;3.47;;;;;;;12.79;59.74;64294.94;5070060;28;20212;-60
2023/04/14 00:49:10;;;;;;;8.73;4.10;;;;;;;13.04;59.43;64322.41;5052066;28;20307;-61
2023/04/14 00:51:35;;;;;;;6.47;4.15;;;;;;;12.98;59.31;64315.25;5069669;28;20659;-61
2023/04/14 00:54:09;;;;;;;6.22;3.83;;;;;;;12.86;59.82;64302.63;5069378;28;20213;-68
2023/04/14 00:56:34;;;;;;;6.63;3.90;;;;;;;13.06;59.59;64327.13;5051744;28;20200;-63
2023/04/14 00:59:00;;;;;;;5.67;3.90;;;;;;;13.11;58.74;64332.06;5070420;28;20200;-62
2023/04/14 01:01:29;;;;;;;4.30;3.22;;;;;;;12.75;58.57;64293.09;5070154;28;20651;-61
2023/04/14 01:03:56;;;;;;;8.88;4.03;;;;;;;12.80;60.23;64298.03;5069989;28;20216;-61
2023/04/14 01:06:21;;;;;;;8.43;3.67;;;;;;;12.98;59.26;64315.25;5051802;28;20259;-60
2023/04/14 01:08:50;;;;;;;5.85;3.53;;;;;;;12.76;59.51;64291.09;5051663;28;20757;-61
2023/04/14 01:11:27;;;;;;;4.80;3.08;;;;;;;12.69;59.79;64283.97;5069832;28;20184;-61
2023/04/14 01:14:21;;;;;;;7.30;3.15;;;;;;;12.77;59.35;64295.28;5069725;28;20218;-61
2023/04/14 01:16:50;;;;;;;7.30;2.87;;;;;;;12.78;60.06;64293.31;5026709;28;20231;-61
2023/04/14 01:19:53;;;;;;;6.57;3.10;;;;;;;12.84;60.21;64300.44;5070139;28;20205;-60
2023/04/14 01:22:23;;;;;;;5.73;3.20;;;;;;;12.82;59.82;64297.69;5070021;28;20263;-60
2023/04/14 01:25:25;;;;;;;5.45;3.20;;;;;;;12.66;59.49;64283.22;5069271;28;20232;-61
2023/04/14 01:28:09;;;;;;;6.67;4.17;;;;;;;12.75;59.09;64293.09;5069806;28;20305;-61
2023/04/14 01:30:57;;;;;;;6.63;3.90;;;;;;;12.61;59.99;64275.19;5051796;28;20195;-61
2023/04/14 01:33:25;;;;;;;9.17;3.87;;;;;;;12.36;60.67;64250.31;5069846;28;20238;-61
2023/04/14 01:35:55;;;;;;;6.10;3.87;;;;;;;12.69;61.07;64283.97;5069825;28;20239;-57
2023/04/14 01:38:26;;;;;;;4.22;3.45;;;;;;;12.68;60.86;64285.41;5069842;28;20221;-61
2023/04/14 01:40:55;;;;;;;6.03;4.07;;;;;;;12.68;61.41;64282.88;5070842;28;20568;-62
2023/04/14 01:43:25;;;;;;;6.10;3.33;;;;;;;12.73;60.51;64290.88;5073396;28;20216;-58
2023/04/14 01:45:55;;;;;;;12.87;4.17;;;;;;;12.82;60.65;64297.69;5072913;28;20253;-56
2023/04/14 01:48:23;;;;;;;6.25;3.45;;;;;;;12.95;59.90;64311.97;5073159;28;20219;-57
2023/04/14 01:50:48;;;;;;;4.50;3.65;;;;;;;12.97;59.79;64317.22;5072887;28;20272;-57
2023/04/14 01:53:17;;;;;;;4.73;3.50;;;;;;;12.86;60.58;64304.59;5073211;28;20358;-58
2023/04/14 01:55:44;;;;;;;5.75;3.90;;;;;;;12.99;59.90;64314.34;5054928;28;20216;-59
2023/04/14 01:58:13;;;;;;;8.30;3.80;;;;;;;12.79;59.93;64294.94;5072946;28;20212;-57
2023/04/14 02:00:41;;;;;;;8.88;3.60;;;;;;;12.48;61.56;64260.94;5071848;28;20188;-57
2023/04/14 02:03:08;;;;;;;6.33;3.83;;;;;;;12.50;61.65;64265.66;5072690;28;20204;-57
2023/04/14 02:05:38;;;;;;;7.40;4.07;;;;;;;12.48;61.00;64263.47;5072912;28;20196;-59
2023/04/14 02:08:11;;;;;;;7.97;3.73;;;;;;;12.55;61.97;64271.16;5072524;28;20231;-56
2023/04/14 02:10:40;;;;;;;7.73;4.20;;;;;;;12.51;61.92;64264.78;5072654;28;20251;-57
2023/04/14 02:13:09;;;;;;;7.70;4.10;;;;;;;12.31;62.45;64242.84;5072978;28;20213;-58
2023/04/14 02:15:35;;;;;;;5.10;3.67;;;;;;;12.50;62.76;64263.69;5072629;28;20197;-60
2023/04/14 02:18:04;;;;;;;6.77;4.10;;;;;;;12.70;62.65;64284.53;5072608;28;20205;-57
2023/04/14 02:20:31;;;;;;;4.67;3.50;;;;;;;12.57;62.81;64273.34;5072423;28;20185;-57
2023/04/14 02:22:57;;;;;;;8.07;4.80;;;;;;;12.33;63.20;64247.03;5072515;28;20819;-58
2023/04/14 02:25:28;;;;;;;9.30;4.13;;;;;;;12.62;62.69;64278.84;5054233;28;20272;-62
2023/04/14 02:27:57;;;;;;;11.23;4.10;;;;;;;12.55;62.56;64268.63;5072754;28;20243;-61
2023/04/14 02:30:41;;;;;;;11.03;4.43;;;;;;;12.42;62.58;64254.38;5071763;28;20185;-61
2023/04/14 02:33:12;;;;;;;6.47;3.73;;;;;;;12.66;63.87;64280.69;5072568;28;20568;-62
2023/04/14 02:35:47;;;;;;;6.28;4.07;;;;;;;12.53;64.00;64269.50;5072432;28;20324;-61
2023/04/14 02:38:21;;;;;;;5.70;3.70;;;;;;;12.52;63.15;64267.88;5071974;28;20800;-60
2023/04/14 02:40:47;;;;;;;5.97;4.47;;;;;;;12.68;62.88;64285.41;5072375;28;20189;-62
2023/04/14 02:43:23;;;;;;;6.75;3.80;;;;;;;12.58;62.09;64277.50;5072005;28;20292;-60
2023/04/14 02:45:51;;;;;;;6.23;3.70;;;;;;;12.62;61.42;64279.38;5072349;28;20185;-61
2023/04/14 02:48:20;;;;;;;5.82;3.72;;;;;;;12.68;60.77;64282.34;5072047;28;20221;-61
2023/04/14 02:50:50;;;;;;;6.40;4.10;;;;;;;12.64;61.03;64275.97;5072185;28;20561;-62
2023/04/14 02:53:20;;;;;;;5.32;3.65;;;;;;;12.40;61.71;64254.72;5071688;28;20299;-60
2023/04/14 02:55:48;;;;;;;5.13;3.50;;;;;;;12.31;61.90;64242.84;5071551;28;20702;-61
2023/04/14 02:58:14;;;;;;;6.30;3.50;;;;;;;12.47;61.39;64262.38;5071624;28;20704;-59
2023/04/14 03:00:40;;;;;;;11.23;3.93;;;;;;;12.34;61.30;64246.13;5071954;28;20655;-61
2023/04/14 03:03:08;;;;;;;3.87;3.10;;;;;;;12.29;61.88;64243.19;5071560;28;20208;-61
2023/04/14 03:05:34;;;;;;;9.80;3.87;;;;;;;12.41;61.64;64256.34;5071598;28;20274;-60
2023/04/14 03:08:03;;;;;;;4.23;3.30;;;;;;;12.48;62.07;64260.94;5071541;28;20295;-60
2023/04/14 03:10:29;;;;;;;5.17;3.40;;;;;;;12.47;61.41;64260.41;5071493;28;20596;-59
2023/04/14 03:12:57;;;;;;;9.63;3.53;;;;;;;12.43;61.36;64256.00;5071872;28;20300;-57
2023/04/14 03:15:24;;;;;;;6.50;3.73;;;;;;;12.43;61.38;64255.47;5071432;28;20276;-57
2023/04/14 03:17:54;;;;;;;8.07;3.63;;;;;;;12.31;62.25;64242.31;5071754;28;20214;-58
2023/04/14 03:20:22;;;;;;;4.20;3.57;;;;;;;12.42;62.67;64254.91;5071186;28;20221;-57
2023/04/14 03:23:04;;;;;;;5.23;3.30;;;;;;;12.32;61.88;64243.41;5071649;28;20193;-58
2023/04/14 03:25:32;;;;;;;6.43;3.30;;;;;;;12.32;61.92;64248.47;5071542;28;20188;-57
2023/04/14 03:28:00;;;;;;;6.57;3.73;;;;;;;12.24;62.96;64237.69;5070979;28;20691;-58
2023/04/14 03:30:29;;;;;;;4.50;3.30;;;;;;;12.27;62.70;64237.91;5071631;28;20192;-57
2023/04/14 03:33:00;;;;;;;3.97;3.00;;;;;;;12.42;63.09;64254.91;5071370;28;20282;-58
2023/04/14 03:35:27;;;;;;;5.80;3.70;;;;;;;12.58;61.41;64274.97;5070950;28;20180;-58
2023/04/14 03:37:58;;;;;;;8.98;3.28;;;;;;;12.60;62.97;64277.16;5071364;28;20205;-58
2023/04/14 03:40:29;;;;;;;7.83;3.50;;;;;;;12.62;63.28;64278.84;5070974;28;20670;-57
2023/04/14 03:42:57;;;;;;;6.43;3.17;;;;;;;12.51;63.47;64264.22;5071548;28;20300;-57
2023/04/14 03:45:24;;;;;;;5.63;3.40;;;;;;;12.61;63.14;64273.22;5078354;22;20225;-60
2023/04/14 03:47:54;;;;;;;6.13;3.43;;;;;;;12.55;63.50;64269.16;5071015;28;20262;-59
2023/04/14 03:50:22;;;;;;;5.83;3.80;;;;;;;12.55;64.09;64269.16;5069672;28;20713;-60
2023/04/14 03:52:49;;;;;;;11.30;4.10;;;;;;;12.78;63.64;64298.91;5070670;28;20208;-60
2023/04/14 03:55:17;;;;;;;8.80;4.10;;;;;;;12.65;64.42;64282.13;5071563;28;20196;-60
2023/04/14 03:57:45;;;;;;;7.83;4.43;;;;;;;12.54;64.53;64270.06;5052979;28;20636;-60
2023/04/14 04:00:14;;;;;;;12.27;6.07;;;;;;;12.71;65.62;64286.16;5071445;28;20242;-60
2023/04/14 04:02:42;;;;;;;8.30;5.50;;;;;;;12.78;65.30;64293.31;5070518;28;20207;-57
2023/04/14 04:05:09;;;;;;;8.93;5.20;;;;;;;12.55;65.65;64269.16;5069700;28;20200;-59
2023/04/14 04:07:36;;;;;;;13.07;5.53;;;;;;;12.40;66.02;64249.66;5071029;28;20266;-57
2023/04/14 04:10:06;;;;;;;12.97;5.33;;;;;;;12.28;66.93;64239.03;5070752;28;20655;-56
2023/04/14 04:12:33;;;;;;;9.55;4.97;;;;;;;12.28;67.23;64236.50;5070740;28;20188;-57
2023/04/14 04:14:58;;;;;;;9.50;4.50;;;;;;;12.10;67.14;64219.28;5071269;28;20296;-57
2023/04/14 04:17:26;;;;;;;9.53;5.63;;;;;;;11.91;68.60;64198.44;5070962;28;20208;-57
2023/04/14 04:19:55;;;;;;;13.90;5.57;;;;;;;12.01;68.18;64209.41;5070641;28;20261;-56
2023/04/14 04:22:22;;;;;;;5.57;4.03;;;;;;;12.11;67.54;64223.44;5070736;28;20647;-57
2023/04/14 04:24:49;;;;;;;7.30;4.30;;;;;;;12.30;66.44;64243.75;5070826;28;20747;-57
2023/04/14 04:27:16;;;;;;;11.23;4.68;;;;;;;12.47;66.33;64262.38;5070683;28;20217;-56
2023/04/14 04:29:42;;;;;;;7.07;4.23;;;;;;;12.47;66.99;64262.38;5070860;28;20220;-56
2023/04/14 04:32:08;;;;;;;7.50;4.60;;;;;;;12.63;66.21;64277.38;5070681;28;20188;-57
2023/04/14 04:34:34;;;;;;;7.73;4.37;;;;;;;12.66;64.92;64283.75;5070946;28;20216;-57
2023/04/14 04:37:01;;;;;;;7.95;4.25;;;;;;;12.76;64.75;64291.09;5070254;28;20793;-57
2023/04/14 04:39:28;;;;;;;6.63;4.22;;;;;;;12.79;64.87;64294.38;5070815;28;20216;-60
2023/04/14 04:42:03;;;;;;;10.73;5.77;;;;;;;12.70;68.97;64287.59;5070515;28;20703;-61
2023/04/14 04:44:31;;;;;;;5.78;4.35;;;;;;;13.63;90.13;64388.59;5070340;28;20200;-61
2023/04/14 04:46:57;;;;;;;10.50;4.53;;;;;;;14.80;81.18;64514.06;5070334;28;20212;-58
2023/04/14 04:49:23;;;;;;;9.70;4.22;;;;;;;15.50;88.67;64590.50;5070505;28;20288;-63
2023/04/14 04:51:48;;;;;;;6.70;4.43;;;;;;;15.63;74.72;64602.25;5070490;28;20189;-60
2023/04/14 04:54:14;;;;;;;9.07;5.22;;;;;;;14.69;63.27;64505.06;5070372;28;20269;-60
2023/04/14 04:56:40;;;;;;;9.65;4.85;;;;;;;14.47;63.17;64480.88;5070456;28;20192;-58
2023/04/14 04:59:05;;;;;;;7.63;4.47;;;;;;;14.13;62.25;64443.50;5070672;28;20655;-60
2023/04/14 05:01:31;;;;;;;3.80;3.13;;;;;;;13.91;62.72;64416.81;5052231;28;20189;-60
2023/04/14 05:03:57;;;;;;;9.77;3.72;;;;;;;14.07;62.73;64431.84;5070319;28;20200;-61
2023/04/14 05:06:22;;;;;;;6.82;3.60;;;;;;;13.71;64.48;64397.38;5051680;28;20196;-61
2023/04/14 05:08:51;;;;;;;8.23;3.78;;;;;;;13.33;66.68;64351.16;5070052;28;20654;-60
2023/04/14 05:11:16;;;;;;;3.45;2.92;;;;;;;13.21;65.04;64343.56;5070376;28;20188;-61
2023/04/14 05:13:41;;;;;;;5.28;3.33;;;;;;;13.28;63.75;64351.25;5070126;28;20342;-60
2023/04/14 05:16:09;;;;;;;6.80;3.15;;;;;;;13.15;63.09;64334.47;5071732;28;20188;-62
2023/04/14 05:18:35;;;;;;;6.90;3.37;;;;;;;12.94;64.41;64310.84;5073905;28;20247;-60
2023/04/14 05:21:06;;;;;;;6.60;3.40;;;;;;;12.72;65.79;64289.25;5073561;28;20270;-59
2023/04/14 05:23:33;;;;;;;5.00;2.58;;;;;;;12.77;64.77;64295.28;5073524;28;20208;-60
2023/04/14 05:25:59;;;;;;;4.53;3.00;;;;;;;12.66;64.60;64280.69;5055356;28;20270;-61
2023/04/14 05:28:25;;;;;;;4.83;3.30;;;;;;;12.65;63.98;64282.13;5080925;22;20220;-61
2023/04/14 05:30:50;;;;;;;4.97;3.17;;;;;;;12.43;63.26;64256.00;5073287;28;20594;-61
2023/04/14 05:33:16;;;;;;;5.70;3.10;;;;;;;12.64;63.54;64281.56;5073328;28;20208;-61
2023/04/14 05:35:45;;;;;;;3.73;2.70;;;;;;;12.58;64.05;64271.91;5073498;28;20242;-61
2023/04/14 05:38:11;;;;;;;4.50;2.60;;;;;;;12.71;63.92;64286.16;5073563;28;20682;-58
2023/04/14 05:40:37;;;;;;;6.20;2.87;;;;;;;12.67;65.11;64284.31;5073313;28;20200;-58
2023/04/14 05:43:02;;;;;;;5.53;2.47;;;;;;;12.71;66.16;64288.69;5073076;28;20674;-60
2023/04/14 05:45:28;;;;;;;4.07;3.00;;;;;;;12.89;65.85;64305.91;5073334;28;20189;-60
2023/04/14 05:47:54;;;;;;;4.57;3.33;;;;;;;12.88;66.52;64306.81;5073347;28;20224;-60
2023/04/14 05:50:21;;;;;;;5.47;3.30;;;;;;;12.94;66.26;64313.94;5073215;28;20193;-57
2023/04/14 05:52:47;;;;;;;5.03;3.33;;;;;;;13.15;66.68;64334.47;5073208;28;20193;-57
2023/04/14 05:55:12;;;;;;;11.17;3.63;;;;;;;13.12;66.10;64333.72;5055252;28;20212;-57
2023/04/14 05:57:38;;;;;;;7.53;3.47;;;;;;;13.20;67.71;64341.94;5073241;28;20192;-58
2023/04/14 06:00:06;;;;;;;13.27;8.67;;;;;;;13.22;67.55;64346.66;5073088;28;20677;-59
2023/04/14 06:02:31;;;;;;;6.95;3.53;;;;;;;13.11;66.27;64327.00;5072946;28;20189;-57
2023/04/14 06:04:58;;;;;;;93.97;66.82;;;;;;;13.64;93.91;64389.69;5073292;28;20191;-57
2023/04/14 06:07:24;;;;;;;7.82;4.32;;;;;;;14.55;69.68;64486.56;5073126;28;20251;-58
2023/04/14 06:09:49;;;;;;;5.82;3.20;;;;;;;14.37;66.15;64467.34;5073030;28;20228;-61
2023/04/14 06:12:15;;;;;;;4.55;3.05;;;;;;;14.09;62.43;64439.09;5072891;28;20192;-60
2023/04/14 06:14:40;;;;;;;5.45;2.58;;;;;;;14.11;63.42;64436.22;5072707;28;20201;-61
2023/04/14 06:17:05;;;;;;;4.47;3.20;;;;;;;13.96;63.68;64422.28;5072669;28;20177;-61
2023/04/14 06:19:31;;;;;;;5.05;3.05;;;;;;;13.87;67.06;64412.97;5072036;28;20213;-62
2023/04/14 06:21:56;;;;;;;4.55;3.20;;;;;;;14.03;62.04;64429.97;5070390;28;20702;-60
2023/04/14 06:24:22;;;;;;;5.30;2.83;;;;;;;14.03;63.24;64429.97;5072713;28;20220;-61
2023/04/14 06:26:47;;;;;;;4.63;3.03;;;;;;;13.96;63.77;64424.81;5071890;28;20502;-60
2023/04/14 06:29:13;;;;;;;4.23;2.90;;;;;;;13.92;63.41;64420.41;5072154;28;20243;-58
2023/04/14 06:31:38;;;;;;;10.90;3.35;;;;;;;14.07;67.06;64437.47;5072461;28;20210;-59
2023/04/14 06:34:04;;;;;;;6.13;3.17;;;;;;;14.30;65.51;64460.19;5054621;28;20220;-59
2023/04/14 06:36:30;;;;;;;5.47;3.05;;;;;;;14.48;61.32;64479.44;5072459;28;20233;-59
2023/04/14 06:38:57;;;;;;;9.75;3.42;;;;;;;14.34;62.73;64460.97;5072536;28;20212;-57
2023/04/14 06:41:23;;;;;;;5.55;3.17;;;;;;;14.53;62.95;64482.41;5072387;28;20670;-58
2023/04/14 06:43:49;;;;;;;5.85;3.38;;;;;;;14.35;63.53;64467.69;5054422;28;20209;-60
2023/04/14 06:46:16;;;;;;;4.85;3.25;;;;;;;14.37;65.51;64469.88;5072366;28;20290;-60
2023/04/14 06:48:42;;;;;;;11.55;5.32;;;;;;;14.26;66.39;64455.78;5072541;28;20212;-61
2023/04/14 06:51:12;;;;;;;8.73;4.03;;;;;;;14.48;64.52;64481.97;5072185;28;20192;-61
2023/04/14 06:53:37;;;;;;;6.90;3.17;;;;;;;14.42;65.52;64469.75;5072320;28;20208;-61
2023/04/14 06:56:05;;;;;;;11.80;3.53;;;;;;;14.57;63.17;64488.78;5054379;28;20562;-61
2023/04/14 06:58:31;;;;;;;10.80;3.53;;;;;;;14.72;65.55;64505.81;5072443;28;20224;-60
2023/04/14 07:00:58;;;;;;;6.50;2.80;;;;;;;14.65;62.19;64500.66;5054197;28;20185;-60
2023/04/14 07:03:25;;;;;;;5.00;2.97;;;;;;;14.71;60.06;64506.69;5072015;28;20226;-61
2023/04/14 07:05:51;;;;;;;4.13;2.42;;;;;;;14.91;61.06;64526.69;5072119;28;20200;-60
2023/04/14 07:08:19;;;;;;;4.95;2.72;;;;;;;14.77;61.87;64511.31;5071644;28;20213;-61
2023/04/14 07:10:45;;;;;;;7.35;2.63;;;;;;;15.01;61.26;64539.66;5071864;28;20682;-61
2023/04/14 07:13:10;;;;;;;4.10;2.10;;;;;;;15.06;59.67;64542.63;5072200;28;20582;-61
2023/04/14 07:15:36;;;;;;;4.93;1.98;;;;;;;15.18;60.11;64553.28;5071861;28;20189;-60
2023/04/14 07:18:02;;;;;;;4.15;2.75;;;;;;;15.27;57.30;64565.72;5053609;28;20671;-61
2023/04/14 07:20:28;;;;;;;6.53;2.25;;;;;;;15.35;59.50;64576.53;5071821;28;20185;-61
2023/04/14 07:22:54;;;;;;;3.20;2.25;;;;;;;15.45;58.75;64587.53;5071813;28;20201;-60
2023/04/14 07:25:20;;;;;;;5.18;2.60;;;;;;;15.52;58.91;64593.25;5071313;28;20185;-62
2023/04/14 07:27:45;;;;;;;5.80;2.58;;;;;;;15.61;58.73;64602.59;5071515;28;20301;-62
2023/04/14 07:30:11;;;;;;;6.50;2.90;;;;;;;15.68;58.32;64610.28;5070323;28;20713;-62
2023/04/14 07:32:37;;;;;;;4.72;2.60;;;;;;;15.88;56.23;64632.28;5070621;28;20191;-62
2023/04/14 07:35:04;;;;;;;5.22;2.50;;;;;;;15.95;56.19;64642.53;5069942;28;20283;-59
2023/04/14 07:37:30;;;;;;;8.88;2.63;;;;;;;16.09;55.32;64657.41;5070789;28;20279;-58
2023/04/14 07:39:55;;;;;;;8.35;2.97;;;;;;;16.09;54.31;64655.41;5070993;28;20292;-59
2023/04/14 07:42:21;;;;;;;5.97;2.70;;;;;;;16.31;54.25;64679.63;5071575;28;20671;-58
2023/04/14 07:44:46;;;;;;;4.47;2.35;;;;;;;16.34;54.24;64684.94;5070585;28;20197;-59
2023/04/14 07:47:12;;;;;;;5.55;2.80;;;;;;;16.44;53.19;64695.94;5071171;28;20304;-60
2023/04/14 07:49:37;;;;;;;4.95;2.33;;;;;;;16.54;52.26;64706.97;5071294;28;20223;-60
2023/04/14 07:52:03;;;;;;;4.60;2.42;;;;;;;16.54;52.08;64704.41;5071496;28;20193;-57
2023/04/14 07:54:30;;;;;;;6.00;2.45;;;;;;;16.54;52.15;64702.41;5071295;28;20250;-58
2023/04/14 07:56:56;;;;;;;4.28;2.13;;;;;;;16.61;52.58;64712.66;5071313;28;20193;-61
2023/04/14 07:59:22;;;;;;;4.07;2.58;;;;;;;16.63;50.85;64714.88;5071539;28;20277;-61
2023/04/14 08:01:48;;;;;;;10.13;2.10;;;;;;;16.79;50.56;64734.47;5053480;28;20185;-60
2023/04/14 08:04:14;;;;;;;7.03;2.70;;;;;;;16.92;52.01;64743.72;5053478;28;20283;-61
2023/04/14 08:06:40;;;;;;;5.72;3.05;;;;;;;17.25;51.43;64782.06;5071213;28;20191;-60
2023/04/14 08:09:05;;;;;;;4.78;2.47;;;;;;;17.12;49.42;64770.28;5071188;28;20581;-61
2023/04/14 08:11:31;;;;;;;7.90;4.00;;;;;;;17.06;51.33;64759.13;5071132;28;20173;-60
2023/04/14 08:13:57;;;;;;;7.07;2.47;;;;;;;17.15;49.95;64769.03;5070868;28;20205;-59
2023/04/14 08:16:23;;;;;;;10.90;2.80;;;;;;;17.31;49.73;64791.22;5071024;28;20649;-57
2023/04/14 08:18:50;;;;;;;3.95;2.30;;;;;;;17.27;48.99;64786.81;5071389;28;20322;-59
2023/04/14 08:21:15;;;;;;;9.93;2.70;;;;;;;17.52;48.33;64811.84;5071006;28;20219;-60
2023/04/14 08:23:40;;;;;;;4.82;2.80;;;;;;;17.66;49.03;64824.72;5071244;28;20634;-60
2023/04/14 08:26:06;;;;;;;5.07;2.72;;;;;;;17.89;47.65;64852.63;5071284;28;20184;-61
2023/04/14 08:28:31;;;;;;;6.32;2.72;;;;;;;17.88;45.40;64848.97;5071372;28;20223;-60
2023/04/14 08:30:57;;;;;;;4.30;2.50;;;;;;;18.01;46.67;64862.75;5070852;28;20193;-61
2023/04/14 08:33:23;;;;;;;10.63;4.18;;;;;;;17.87;47.02;64847.31;5070809;28;20220;-58
2023/04/14 08:35:49;;;;;;;9.75;4.68;;;;;;;17.81;46.29;64843.25;5070811;28;20185;-60
2023/04/14 08:38:14;;;;;;;5.10;2.38;;;;;;;18.15;46.10;64878.19;5071020;28;20220;-61
2023/04/14 08:40:42;;;;;;;5.20;2.58;;;;;;;18.29;48.52;64899.28;5053021;28;20254;-56
2023/04/14 08:43:09;;;;;;;6.72;3.33;;;;;;;18.53;46.20;64920.13;5070811;28;20759;-57
2023/04/14 08:45:35;;;;;;;8.43;3.30;;;;;;;18.65;45.90;64932.78;5070639;28;20268;-60
2023/04/14 08:48:02;;;;;;;6.90;2.72;;;;;;;18.80;45.66;64949.34;5070665;28;20290;-58
2023/04/14 08:50:35;;;;;;;6.65;2.88;;;;;;;19.01;43.41;64973.06;5069804;28;20181;-61
2023/04/14 08:53:04;;;;;;;7.65;4.22;;;;;;;19.12;46.00;64982.09;5070672;28;20702;-61
2023/04/14 08:55:32;;;;;;;4.32;2.30;;;;;;;19.33;42.69;65005.31;5070492;28;20192;-61
2023/04/14 08:58:00;;;;;;;8.52;2.78;;;;;;;19.59;42.99;65039.13;5070499;28;20305;-61
2023/04/14 09:00:26;;;;;;;10.23;2.92;;;;;;;19.68;38.14;65043.94;5052582;28;20241;-56
2023/04/14 09:02:52;;;;;;;10.18;2.65;;;;;;;19.89;36.58;65069.69;5070553;28;20205;-57
2023/04/14 09:05:18;;;;;;;13.68;3.13;;;;;;;20.36;33.41;65120.53;5070477;28;20177;-58
2023/04/14 09:07:43;;;;;;;20.33;3.13;;;;;;;20.63;32.61;65150.38;5070523;28;20208;-56
2023/04/14 09:10:10;;;;;;;8.93;2.70;;;;;;;20.86;31.73;65176.34;5052379;28;20192;-58
2023/04/14 09:12:39;;;;;;;17.73;4.18;;;;;;;21.14;32.01;65206.78;5052283;28;20196;-58
2023/04/14 09:15:05;;;;;;;17.23;3.92;;;;;;;21.46;31.11;65242.16;5070234;28;20219;-58
2023/04/14 09:17:31;;;;;;;17.95;3.05;;;;;;;21.73;30.21;65272.00;5070168;28;20711;-59
2023/04/14 09:19:57;;;;;;;16.02;3.25;;;;;;;22.09;29.72;65311.34;5052315;28;20188;-60
2023/04/14 09:22:22;;;;;;;18.65;3.08;;;;;;;21.94;29.27;65294.72;5070192;28;20540;-61
2023/04/14 09:24:49;;;;;;;21.42;3.17;;;;;;;21.91;29.48;65290.84;5070084;28;20580;-59
2023/04/14 09:27:14;;;;;;;18.63;3.60;;;;;;;21.39;29.23;65236.97;5069894;28;20205;-61
2023/04/14 09:29:40;;;;;;;12.35;3.10;;;;;;;21.30;29.67;65224.47;5070139;28;20211;-61
2023/04/14 09:32:05;;;;;;;16.35;3.00;;;;;;;20.86;29.93;65175.78;5070027;28;20195;-65
2023/04/14 09:34:31;;;;;;;15.52;2.90;;;;;;;20.75;30.42;65163.63;5069899;28;20216;-61
2023/04/14 09:37:08;;;;;;;15.07;3.47;;;;;;;20.55;30.66;65141.53;5052202;28;20181;-59
2023/04/14 09:39:42;;;;;;;10.25;3.13;;;;;;;20.73;30.79;65161.41;5069831;28;20235;-59
2023/04/14 09:42:07;;;;;;;12.15;2.05;;;;;;;20.80;30.79;65169.16;5069794;28;20276;-61
2023/04/14 09:44:33;;;;;;;12.23;2.47;;;;;;;20.83;31.00;65172.47;5069788;28;20622;-61
2023/04/14 09:46:59;;;;;;;6.95;2.30;;;;;;;21.07;30.94;65199.03;5051845;28;20774;-60
2023/04/14 09:49:25;;;;;;;14.23;3.05;;;;;;;20.99;30.94;65192.19;5070124;28;20216;-62
2023/04/14 09:51:56;;;;;;;15.23;2.78;;;;;;;21.24;30.81;65220.41;5069967;28;20334;-61
2023/04/14 09:54:24;;;;;;;14.07;2.85;;;;;;;20.93;31.12;65184.09;5070016;28;20635;-60
2023/04/14 09:56:51;;;;;;;25.50;4.43;;;;;;;20.68;31.05;65155.91;5051628;28;20185;-60
2023/04/14 09:59:28;;;;;;;13.38;2.90;;;;;;;20.47;31.74;65135.25;5069923;28;20247;-58
2023/04/14 10:01:57;;;;;;;13.20;2.90;;;;;;;20.48;32.03;65133.81;5069576;28;20176;-60
2023/04/14 10:04:23;;;;;;;14.05;2.72;;;;;;;20.77;31.89;65165.84;5068278;22;20719;-58
2023/04/14 10:06:48;;;;;;;17.02;3.30;;;;;;;20.87;31.84;65176.88;5052942;28;20238;-57
2023/04/14 10:09:22;;;;;;;9.40;2.83;;;;;;;20.62;31.94;65146.72;5066906;28;20728;-59
2023/04/14 10:12:06;;;;;;;14.57;2.78;;;;;;;20.49;32.35;65137.44;5072852;28;20181;-56
2023/04/14 10:14:32;;;;;;;8.35;2.20;;;;;;;20.66;32.33;65153.69;5072689;28;20221;-56
2023/04/14 10:16:59;;;;;;;10.85;2.40;;;;;;;20.92;32.64;65185.00;5072985;28;20302;-55
2023/04/14 10:19:24;;;;;;;15.13;3.05;;;;;;;20.68;32.91;65155.91;5072642;28;20346;-59
2023/04/14 10:21:51;;;;;;;6.85;2.58;;;;;;;20.69;33.14;65154.44;5073007;28;20257;-56
2023/04/14 10:24:18;;;;;;;11.20;3.35;;;;;;;20.52;33.97;65138.22;5072723;28;20212;-60
2023/04/14 10:26:46;;;;;;;8.60;3.35;;;;;;;20.25;34.98;65108.38;5072570;28;20184;-57
2023/04/14 10:29:11;;;;;;;11.85;3.28;;;;;;;19.99;35.84;65080.75;5072767;28;20278;-60
2023/04/14 10:31:41;;;;;;;11.75;2.28;;;;;;;19.89;36.75;65071.69;5072704;28;20181;-59
2023/04/14 10:34:11;;;;;;;13.77;2.40;;;;;;;19.96;37.73;65076.88;5072505;28;20646;-59
2023/04/14 10:36:37;;;;;;;17.55;3.42;;;;;;;19.74;38.35;65053.13;5072650;28;20191;-59
2023/04/14 10:39:04;;;;;;;7.28;3.20;;;;;;;19.26;40.06;65000.13;5072120;28;20224;-57
2023/04/14 10:41:51;;;;;;;8.07;2.53;;;;;;;19.96;39.76;65077.41;5072426;28;20238;-59
2023/04/14 10:44:30;;;;;;;5.70;2.15;;;;;;;19.72;41.06;65050.91;5072710;28;20223;-58
2023/04/14 10:46:57;;;;;;;6.50;2.20;;;;;;;19.38;42.33;65013.38;5072265;28;20651;-60
2023/04/14 10:49:38;;;;;;;10.07;2.67;;;;;;;19.15;42.60;64987.97;5072261;28;20698;-62
2023/04/14 10:52:26;;;;;;;7.45;2.30;;;;;;;17.89;46.43;64852.63;5072190;28;20184;-57
2023/04/14 10:55:01;;;;;;;5.25;2.63;;;;;;;17.05;52.26;64757.50;5071874;28;20228;-58
2023/04/14 10:57:27;;;;;;;2.60;1.52;;;;;;;16.20;56.83;64666.97;5072100;28;20188;-59
2023/04/14 10:59:57;;;;;;;3.40;1.60;;;;;;;15.64;59.40;64605.88;5072016;28;20205;-59
2023/04/14 11:02:33;;;;;;;2.45;1.55;;;;;;;15.32;61.15;64573.22;5072170;28;20196;-59
2023/04/14 11:05:07;;;;;;;4.55;1.48;;;;;;;15.37;60.31;64579.25;5072211;28;20294;-61
2023/04/14 11:07:57;;;;;;;3.55;0.88;;;;;;;14.99;60.26;64532.94;5072209;28;20219;-62
2023/04/14 11:10:25;;;;;;;3.55;0.75;;;;;;;14.69;60.36;64501.97;5059791;28;20201;-61
2023/04/14 11:12:55;;;;;;;0.50;0.43;;;;;;;14.39;61.24;64469.00;5071858;28;20635;-60
2023/04/14 11:15:21;;;;;;;1.63;0.77;;;;;;;14.29;60.33;64456.59;5071794;28;20181;-59
2023/04/14 11:17:47;;;;;;;0.90;0.60;;;;;;;13.99;61.14;64428.13;5053872;28;20219;-59
2023/04/14 11:20:21;;;;;;;0.87;0.77;;;;;;;13.70;60.67;64393.72;5072014;28;20211;-59
2023/04/14 11:22:48;;;;;;;0.50;0.30;;;;;;;13.52;61.38;64376.50;5071726;28;20545;-60
2023/04/14 11:25:16;;;;;;;2.63;0.40;;;;;;;13.57;60.93;64379.47;5071608;28;20168;-61
2023/04/14 11:27:42;;;;;;;2.97;0.80;;;;;;;13.40;60.24;64363.88;5071406;28;20299;-58
2023/04/14 11:30:13;;;;;;;1.53;0.57;;;;;;;13.16;60.33;64335.56;5071753;28;20178;-60
2023/04/14 11:32:45;;;;;;;1.70;0.40;;;;;;;13.22;59.93;64344.13;5071746;28;20199;-59
2023/04/14 11:35:10;;;;;;;0.80;0.50;;;;;;;13.09;59.42;64330.41;5071548;28;20188;-60